Kadoka, South Dakota
Current Conditions -  °F | °C
As of 12:55 PM on Saturday 25 Oct 2014 (Local Time) from KPHP Reporting Station
Clear Clear  
Wind Chill: 65°   Ceiling: Unl
Heat Index: 65°   Visibility: 10mi
Dew Point: 32°   Wind: 13mph
Humidity: 29%   Direction: 140°SE
Pressure: 30.1"   Gusts: NA
Location:  43.83°N, 101.51°W
Report Text: KPHP 251855Z AUTO 14011KT 10SM CLR 18/00 A3010 RMK AO2 SLP189 T01830000
Loading
Personal Weather Stations






























Interactive Weather Map
Tropical Storm Tracking
New forecast layout! Learn more

10-Day Weather Forecast

Advertisements
Track Severe Weather on mobile